Tuesday, July 29, 2014
00:40 UTC
  |  Log In   |  Register Free
Airport Search:

Comanche County-City Airport
(KMKN)

Comanche County-City Airport Diagram
No Airport Diagram Available

FAA data valid effective July 24, 2014 until September 18, 2014 (unless otherwise noted).

 
 
 
 
 
 
 
 
 
 
 
 
 
 

Current Aviation Weather for Comanche County-City Airport (KMKN)

The most recent METAR observation for KMKN was updated at: 1835 UTC
METAR Summary (Translated METAR)
KMKN
281835Z AUTO 04010G19KT SCT070 SCT080 SCT110 35/18 A3014 RMK AO2 LTG DSNT NE AND NW T03530184 PWINO
KBWD
(19.7 nm SW from KMKN)
281835Z AUTO 11008KT 10SM BKN075 34/16 A3014 RMK AO2
TAF
No TAF information found within 50 nm of KMKN
  Airport Weather Conditions for KMKN

 Current Weather at MKN
86° F
Partly Cloudy
North winds at 0.0 mph
MKN NOAA Radar

Pressure: 30.11 in
Humidity: 59%
Wind: Calm
Dew Point: 69.8°F


Airport Weather Forecast for KMKN

Translated METAR and TAF for KMKN
Translated METAR for KMKN (0033 UTC 29 July 2014)
found at http://aviationweather.gov/adds/metars/
 
METAR text: KMKN 290015Z AUTO 09004KT CLR 30/21 A3011 RMK AO2 T02980210 PWINO
Conditions at: KMKN (COMANCHE , TX, US) observed 0015 UTC 29 July 2014
Temperature: 29.8°C (86°F)
Dewpoint: 21.0°C (70°F) [RH = 59%]
Pressure (altimeter): 30.11 inches Hg (1019.7 mb)
Winds: from the E (90 degrees) at 5 MPH (4 knots; 2.1 m/s)
Visibility: missing
Ceiling: at least 12,000 feet AGL
Clouds: sky clear below 12,000 feet AGL
Weather: automated observation with no human augmentation;
there may or may not be significant weather present at this time
Translated TAF for KMKN

There is no translated TAF available for this airport

Find All Airport Services Find A Hotel Find A Rental Car Find A Golf Course Find A Restaurant $100 Hamburger



FBO's on the Field
FBO Company Facility Photos Services Transportation Aviation Fuel Prices: Prices include tax
Catering Weather Repair Courtesy Rental Type 100LL JetA JetA+ MOGAS 8087
 
Comanche County/City Airport

This FBO has not yet been rated
FS:Avfuel
Last Updated: Jul-14
Login to update fuel prices
SS:
Contact Comanche County/City AirportMore FBO Information
 
Add another FBO Facility Photos Catering Weather Repair Courtesy Rental Type 100LL JetA JetA+ MOGAS 8087
Services Transportation Aviation Fuel Prices: Prices include tax


GlobalAir.com Airport Resource Center model-print
model-print
model-print
model-print